Portada
METAR-TAF:

METAR-TAF

Aeroports :

Aurangabad, Índia

latitud: 19-51-46N, longitud: 75-23-53E, altitud: 582 m

Observació

L'informe es va fer fa 8 hores i 46 minuts, a les 15:00 UTC
Vent 6 kt del Oest/Nord-Oest
Temperatura 29°C
Humitat 62%
Pressió 1004 hPa
Visibilitat: 6000 m
Núvols disperses a una alçada de 2000 ft
Núvols disperses a una alçada de 2500 ft
Escasses núvols a una alçada de 3000 ft, Cumulus congestus.
Cel ennuvolat a una alçada de 10000 ft

METAR: VAAU 031500Z 29006KT 6000 SCT020 SCT025 FEW030TCU BKN100 29/21 Q1004 NOSIG

Hora: 05:16 (23:46 UTC)


TAF: manca

Observacions i pronòstics meteorològics de més de 4000 aeroports (METAR i TAF).

Les estacions disponibles són els punts grocs i vermells al mapa.

Posi el ratolí al punt desitjat per veure el nom de l'estació.

Feu clic per veure les observacions i els pronòstics meteorològics.

Per canviar el mapa: feu clic els botons verds amb una creu de color negre per apropar; al botó verd amb un guió per allunyar la imatge; o en les fletxes verdes per a mapes adjacents.


METAR-TAF: